Time;durP1;ratioP1;P1;durP2;ratioP2;P2;SDS_P1;SDS_P2;PMS_P1;PMS_P2;Temp;Humidity;BMP_temperature;BMP_pressure;BME280_temperature;BME280_humidity;BME280_pressure;Samples;Min_cycle;Max_cycle;Signal;HPM_P1;HPM_P2
2022/04/15 00:02:06;;;;;;;5.90;3.70;;;8.60;99.90;;;;;;5054235;28;20273;-46
2022/04/15 00:04:34;;;;;;;8.10;4.00;;;8.60;99.90;;;;;;5049843;28;20211;-49
2022/04/15 00:07:01;;;;;;;7.23;4.97;;;8.60;99.90;;;;;;5050656;28;20203;-45
2022/04/15 00:09:30;;;;;;;6.70;3.87;;;8.60;99.90;;;;;;5042106;28;20203;-51
2022/04/15 00:12:00;;;;;;;7.47;4.43;;;8.60;99.90;;;;;;5041132;28;20214;-48
2022/04/15 00:14:26;;;;;;;6.70;4.63;;;8.60;99.90;;;;;;5044802;28;20217;-49
2022/04/15 00:16:53;;;;;;;8.47;4.43;;;8.60;99.90;;;;;;5053705;28;20273;-48
2022/04/15 00:19:23;;;;;;;7.80;4.37;;;8.50;99.90;;;;;;5046670;28;20203;-46
2022/04/15 00:21:50;;;;;;;7.60;4.50;;;8.50;99.90;;;;;;5051995;28;20222;-50
2022/04/15 00:24:17;;;;;;;6.33;4.20;;;8.50;99.90;;;;;;5050003;28;20202;-44
2022/04/15 00:26:44;;;;;;;5.60;4.13;;;8.50;99.90;;;;;;5047468;28;20191;-45
2022/04/15 00:29:12;;;;;;;5.77;4.60;;;8.50;99.90;;;;;;5046406;28;20364;-48
2022/04/15 00:31:40;;;;;;;7.50;5.13;;;8.50;99.90;;;;;;5045389;28;21091;-44
2022/04/15 00:34:07;;;;;;;8.47;5.13;;;8.50;99.90;;;;;;5049569;28;20192;-45
2022/04/15 00:36:34;;;;;;;10.30;4.87;;;8.50;99.90;;;;;;5050359;28;20348;-48
2022/04/15 00:39:01;;;;;;;8.73;5.13;;;8.40;99.90;;;;;;5047570;28;20207;-45
2022/04/15 00:41:28;;;;;;;6.80;4.70;;;8.50;99.90;;;;;;5046397;28;20223;-46
2022/04/15 00:43:55;;;;;;;7.50;4.63;;;8.40;99.90;;;;;;5045166;28;20214;-47
2022/04/15 00:46:23;;;;;;;5.73;4.23;;;8.40;99.90;;;;;;5045220;28;20202;-45
2022/04/15 00:48:50;;;;;;;6.90;4.57;;;8.40;99.90;;;;;;5052576;28;20254;-48
2022/04/15 00:51:18;;;;;;;10.03;4.70;;;8.40;99.90;;;;;;5048186;28;20558;-46
2022/04/15 00:53:46;;;;;;;7.33;4.33;;;8.40;99.90;;;;;;5048087;28;20195;-46
2022/04/15 00:56:14;;;;;;;5.20;4.50;;;8.40;99.90;;;;;;5051595;28;20199;-46
2022/04/15 00:58:42;;;;;;;7.20;4.97;;;8.40;99.90;;;;;;5041777;28;20187;-45
2022/04/15 01:01:10;;;;;;;8.30;4.80;;;8.40;99.90;;;;;;5049669;28;20239;-48
2022/04/15 01:03:38;;;;;;;8.03;4.20;;;8.40;99.90;;;;;;5048064;28;20317;-51
2022/04/15 01:06:09;;;;;;;10.20;4.60;;;8.40;99.90;;;;;;5048296;28;20281;-45
2022/04/15 01:08:40;;;;;;;7.27;4.70;;;8.40;99.90;;;;;;5056937;28;20195;-47
2022/04/15 01:11:08;;;;;;;8.37;5.10;;;8.40;99.90;;;;;;5044394;28;20211;-45
2022/04/15 01:13:38;;;;;;;8.00;5.00;;;8.30;99.90;;;;;;5044012;28;20203;-47
2022/04/15 01:16:07;;;;;;;9.03;5.13;;;8.30;99.90;;;;;;5057768;28;20202;-45
2022/04/15 01:18:34;;;;;;;8.63;5.00;;;8.30;99.90;;;;;;5038410;28;20252;-48
2022/04/15 01:21:03;;;;;;;9.40;5.13;;;8.30;99.90;;;;;;5047728;28;20250;-46
2022/04/15 01:23:31;;;;;;;6.20;4.93;;;8.40;99.90;;;;;;5047924;28;20191;-50
2022/04/15 01:25:58;;;;;;;10.20;4.90;;;8.30;99.90;;;;;;5061363;28;20262;-43
2022/04/15 01:28:25;;;;;;;9.17;5.13;;;8.30;99.90;;;;;;5046080;28;20303;-45
2022/04/15 01:30:52;;;;;;;8.70;5.67;;;8.30;99.90;;;;;;5053140;28;20260;-46
2022/04/15 01:33:19;;;;;;;8.27;5.03;;;8.30;99.90;;;;;;5053059;28;20687;-45
2022/04/15 01:35:46;;;;;;;9.03;6.40;;;8.30;99.90;;;;;;5040618;28;20183;-47
2022/04/15 01:38:14;;;;;;;7.63;6.30;;;8.30;99.90;;;;;;5051711;28;20876;-48
2022/04/15 01:40:44;;;;;;;12.33;6.70;;;8.30;99.90;;;;;;5048528;28;20233;-49
2022/04/15 01:43:11;;;;;;;7.63;5.97;;;8.30;99.90;;;;;;5046853;28;20262;-45
2022/04/15 01:45:39;;;;;;;10.90;6.83;;;8.30;99.90;;;;;;5046772;28;20194;-44
2022/04/15 01:48:06;;;;;;;8.67;5.70;;;8.30;99.90;;;;;;5044828;28;20199;-46
2022/04/15 01:50:33;;;;;;;8.03;5.80;;;8.30;99.90;;;;;;5043903;28;20219;-47
2022/04/15 01:53:00;;;;;;;7.43;6.33;;;8.30;99.90;;;;;;5044464;28;20224;-44
2022/04/15 01:55:27;;;;;;;8.40;6.00;;;8.30;99.90;;;;;;5047832;28;20195;-47
2022/04/15 01:57:55;;;;;;;8.37;7.20;;;8.30;99.90;;;;;;5049960;28;20288;-44
2022/04/15 02:00:22;;;;;;;11.03;7.27;;;8.30;99.90;;;;;;5053456;28;20191;-45
2022/04/15 02:02:49;;;;;;;9.97;6.63;;;8.30;99.90;;;;;;5053285;28;20191;-46
2022/04/15 02:05:16;;;;;;;8.10;6.60;;;8.30;99.90;;;;;;5041822;28;20203;-44
2022/04/15 02:07:43;;;;;;;9.57;6.93;;;8.30;99.90;;;;;;5038059;28;20211;-50
2022/04/15 02:10:10;;;;;;;13.43;7.53;;;8.30;99.90;;;;;;5054014;28;20206;-44
2022/04/15 02:12:37;;;;;;;13.17;7.00;;;8.30;99.90;;;;;;5050835;28;20703;-47
2022/04/15 02:15:08;;;;;;;11.23;7.63;;;8.30;99.90;;;;;;5049101;28;20218;-50
2022/04/15 02:17:35;;;;;;;10.30;6.90;;;8.30;99.90;;;;;;5044527;28;20207;-47
2022/04/15 02:20:05;;;;;;;13.10;6.93;;;8.30;99.90;;;;;;5050132;28;20199;-50
2022/04/15 02:22:32;;;;;;;10.53;7.43;;;8.20;99.90;;;;;;5046249;28;20234;-45
2022/04/15 02:25:00;;;;;;;9.87;7.10;;;8.20;99.90;;;;;;5050262;28;20289;-44
2022/04/15 02:27:26;;;;;;;9.83;7.07;;;8.20;99.90;;;;;;5051570;28;20985;-47
2022/04/15 02:29:53;;;;;;;12.10;7.40;;;8.20;99.90;;;;;;5052418;28;20199;-45
2022/04/15 02:32:21;;;;;;;10.23;6.97;;;8.20;99.90;;;;;;5054537;28;20229;-48
2022/04/15 02:34:48;;;;;;;9.17;6.87;;;8.10;99.90;;;;;;5054572;28;20294;-44
2022/04/15 02:37:15;;;;;;;11.03;6.93;;;8.10;99.90;;;;;;5038535;28;20616;-46
2022/04/15 02:39:42;;;;;;;11.07;7.07;;;8.10;99.90;;;;;;5049755;28;20494;-44
2022/04/15 02:42:10;;;;;;;10.90;7.03;;;8.10;99.90;;;;;;5063918;28;20238;-47
2022/04/15 02:44:38;;;;;;;10.43;6.67;;;8.20;99.90;;;;;;5048472;28;20425;-47
2022/04/15 02:47:05;;;;;;;9.80;6.03;;;8.20;99.90;;;;;;5054826;28;20695;-47
2022/04/15 02:49:34;;;;;;;10.87;6.27;;;8.10;99.90;;;;;;5051098;28;20205;-44
2022/04/15 02:52:01;;;;;;;8.27;6.50;;;8.10;99.90;;;;;;5038325;28;20214;-44
2022/04/15 02:54:28;;;;;;;9.20;5.87;;;8.10;99.90;;;;;;5045198;28;20195;-46
2022/04/15 02:56:55;;;;;;;8.97;6.47;;;8.10;99.90;;;;;;5049102;28;20207;-44
2022/04/15 02:59:22;;;;;;;8.23;5.73;;;8.10;99.90;;;;;;5046912;28;20203;-47
2022/04/15 03:01:49;;;;;;;9.63;6.27;;;8.10;99.90;;;;;;5050012;28;20225;-46
2022/04/15 03:04:16;;;;;;;9.30;5.37;;;8.10;99.90;;;;;;5051560;28;20229;-45
2022/04/15 03:06:45;;;;;;;9.03;5.70;;;8.00;99.90;;;;;;5045560;28;20207;-48
2022/04/15 03:09:12;;;;;;;7.63;5.47;;;8.10;99.90;;;;;;5041986;28;20206;-48
2022/04/15 03:11:39;;;;;;;11.97;6.87;;;8.10;99.90;;;;;;5051011;28;20985;-49
2022/04/15 03:14:06;;;;;;;9.07;6.70;;;8.10;99.90;;;;;;5059814;28;20206;-46
2022/04/15 03:16:34;;;;;;;9.33;6.57;;;8.10;99.90;;;;;;5048766;28;20992;-45
2022/04/15 03:19:01;;;;;;;8.90;6.73;;;8.00;99.90;;;;;;5051725;28;20203;-45
2022/04/15 03:21:29;;;;;;;7.70;6.67;;;8.00;99.90;;;;;;5047851;28;20202;-45
2022/04/15 03:23:57;;;;;;;9.07;6.57;;;8.00;99.90;;;;;;5037547;28;20191;-44
2022/04/15 03:26:24;;;;;;;10.57;7.33;;;8.00;99.90;;;;;;5036903;28;20187;-46
2022/04/15 03:28:51;;;;;;;8.43;6.93;;;7.90;99.90;;;;;;5052290;28;20205;-44
2022/04/15 03:31:18;;;;;;;11.87;8.07;;;8.00;99.90;;;;;;5052407;28;20617;-47
2022/04/15 03:33:44;;;;;;;11.07;8.00;;;7.90;99.90;;;;;;5053032;28;20218;-45
2022/04/15 03:36:12;;;;;;;11.10;8.10;;;7.90;99.90;;;;;;5059509;28;20230;-49
2022/04/15 03:38:40;;;;;;;10.63;8.13;;;8.00;99.90;;;;;;5041413;28;20440;-49
2022/04/15 03:41:08;;;;;;;10.33;8.00;;;7.90;99.90;;;;;;5042238;28;20222;-49
2022/04/15 03:43:35;;;;;;;11.10;8.40;;;7.90;99.90;;;;;;5047096;28;20199;-44
2022/04/15 03:46:02;;;;;;;16.00;9.30;;;7.90;99.90;;;;;;5058199;28;20213;-47
2022/04/15 03:48:29;;;;;;;8.93;7.97;;;7.90;99.90;;;;;;5042565;28;20206;-45
2022/04/15 03:50:56;;;;;;;12.23;8.90;;;7.90;99.90;;;;;;5058786;28;20233;-45
2022/04/15 03:53:23;;;;;;;12.70;8.83;;;7.90;99.90;;;;;;5046464;28;20195;-46
2022/04/15 03:55:52;;;;;;;11.93;9.10;;;7.90;99.90;;;;;;5048445;28;20202;-46
2022/04/15 03:58:20;;;;;;;11.30;9.30;;;7.90;99.90;;;;;;5049328;28;20229;-47
2022/04/15 04:00:47;;;;;;;16.13;10.50;;;7.90;99.90;;;;;;5058584;28;20226;-50
2022/04/15 04:03:14;;;;;;;13.60;9.93;;;7.90;99.90;;;;;;5062049;28;20199;-50
2022/04/15 04:05:42;;;;;;;15.10;9.67;;;7.90;99.90;;;;;;5040981;28;21060;-47
2022/04/15 04:08:08;;;;;;;15.13;10.00;;;7.90;99.90;;;;;;5054505;28;20207;-44
2022/04/15 04:10:35;;;;;;;15.03;10.13;;;7.90;99.90;;;;;;5040241;28;20202;-48
2022/04/15 04:13:03;;;;;;;16.93;10.27;;;8.00;99.90;;;;;;5059980;28;20754;-48
2022/04/15 04:15:31;;;;;;;15.20;11.27;;;8.00;99.90;;;;;;5056744;28;20209;-48
2022/04/15 04:17:58;;;;;;;18.43;11.30;;;8.00;99.90;;;;;;5047589;28;20287;-47
2022/04/15 04:20:25;;;;;;;17.27;11.27;;;8.00;99.90;;;;;;5052295;28;20202;-47
2022/04/15 04:22:52;;;;;;;20.50;12.10;;;8.00;99.90;;;;;;5059584;28;20905;-51
2022/04/15 04:25:19;;;;;;;22.97;13.17;;;8.00;99.90;;;;;;5042174;28;20207;-48
2022/04/15 04:27:46;;;;;;;19.53;13.57;;;8.00;99.90;;;;;;5056976;28;20257;-48
2022/04/15 04:30:15;;;;;;;18.47;12.50;;;8.00;99.90;;;;;;5054506;28;20691;-46
2022/04/15 04:32:49;;;;;;;22.10;13.47;;;8.00;99.90;;;;;;5056628;28;20234;-48
2022/04/15 04:35:16;;;;;;;28.30;14.63;;;8.00;99.90;;;;;;5057992;28;20206;-50
2022/04/15 04:37:43;;;;;;;23.53;14.67;;;8.00;99.90;;;;;;5058058;28;20206;-48
2022/04/15 04:40:10;;;;;;;26.53;15.50;;;8.00;99.90;;;;;;5053732;28;20202;-45
2022/04/15 04:42:37;;;;;;;23.97;15.70;;;8.00;99.90;;;;;;5049899;28;21170;-49
2022/04/15 04:45:05;;;;;;;25.47;14.73;;;8.00;99.90;;;;;;5048604;28;20257;-49
2022/04/15 04:47:32;;;;;;;23.83;14.77;;;8.10;99.90;;;;;;5057255;28;20214;-47
2022/04/15 04:50:01;;;;;;;26.00;15.93;;;8.10;99.90;;;;;;5050775;28;20207;-45
2022/04/15 04:52:28;;;;;;;22.30;14.97;;;8.10;99.90;;;;;;5052924;28;20207;-46
2022/04/15 04:54:54;;;;;;;26.23;15.37;;;8.10;99.90;;;;;;5043189;28;20213;-45
2022/04/15 04:57:21;;;;;;;28.37;15.40;;;8.10;99.90;;;;;;5048492;28;20202;-46
2022/04/15 04:59:48;;;;;;;22.73;15.93;;;8.20;99.90;;;;;;5043078;28;20210;-47
2022/04/15 05:02:15;;;;;;;27.27;16.77;;;8.20;99.90;;;;;;5048861;28;20228;-46
2022/04/15 05:04:41;;;;;;;22.57;15.30;;;8.10;99.90;;;;;;5049001;28;20234;-45
2022/04/15 05:07:09;;;;;;;26.40;16.10;;;8.20;99.90;;;;;;5054294;28;20194;-45
2022/04/15 05:09:41;;;;;;;22.20;15.77;;;8.20;99.90;;;;;;5052603;28;20198;-45
2022/04/15 05:12:09;;;;;;;26.67;15.50;;;8.20;99.90;;;;;;5040784;28;20310;-44
2022/04/15 05:14:37;;;;;;;25.93;16.07;;;8.20;99.90;;;;;;5049013;28;20482;-44
2022/04/15 05:17:04;;;;;;;29.17;16.47;;;8.20;99.90;;;;;;5042881;28;20761;-47
2022/04/15 05:19:30;;;;;;;27.03;15.87;;;8.20;99.90;;;;;;5044435;28;20191;-44
2022/04/15 05:21:57;;;;;;;18.80;14.27;;;8.20;99.90;;;;;;5060024;28;20454;-48
2022/04/15 05:24:25;;;;;;;27.13;17.83;;;8.20;99.90;;;;;;5050342;28;20566;-49
2022/04/15 05:26:54;;;;;;;25.83;17.03;;;8.20;99.90;;;;;;5035447;28;20206;-44
2022/04/15 05:29:21;;;;;;;27.07;16.87;;;8.20;99.90;;;;;;5053074;28;20195;-48
2022/04/15 05:31:48;;;;;;;29.13;18.10;;;8.20;99.90;;;;;;5042565;28;20218;-47
2022/04/15 05:34:16;;;;;;;32.73;19.23;;;8.30;99.90;;;;;;5057363;28;20202;-50
2022/04/15 05:36:42;;;;;;;29.20;18.47;;;8.20;99.90;;;;;;5052566;28;20210;-45
2022/04/15 05:39:09;;;;;;;30.53;18.50;;;8.20;99.90;;;;;;5048204;28;20536;-51
2022/04/15 05:41:37;;;;;;;33.70;17.77;;;8.30;99.90;;;;;;5051323;28;20708;-46
2022/04/15 05:44:05;;;;;;;28.60;17.67;;;8.20;99.90;;;;;;5042002;28;20199;-46
2022/04/15 05:46:32;;;;;;;32.50;16.70;;;8.20;99.90;;;;;;5039431;28;20210;-45
2022/04/15 05:48:58;;;;;;;24.90;15.73;;;8.20;99.90;;;;;;5050150;28;20762;-48
2022/04/15 05:51:25;;;;;;;26.47;15.00;;;8.20;99.90;;;;;;5049107;28;20279;-50
2022/04/15 05:53:53;;;;;;;26.63;13.43;;;8.20;99.90;;;;;;5054597;28;20703;-46
2022/04/15 05:56:20;;;;;;;22.83;13.20;;;8.20;99.90;;;;;;5059348;28;20604;-46
2022/04/15 05:58:48;;;;;;;24.67;14.17;;;8.20;99.90;;;;;;5037025;28;20198;-46
2022/04/15 06:01:14;;;;;;;23.47;13.17;;;8.20;99.90;;;;;;5056524;28;20316;-45
2022/04/15 06:03:41;;;;;;;20.73;12.90;;;8.30;99.90;;;;;;5051794;28;20807;-45
2022/04/15 06:06:08;;;;;;;28.07;14.50;;;8.30;99.90;;;;;;5056084;28;20203;-48
2022/04/15 06:08:35;;;;;;;26.73;12.93;;;8.30;99.90;;;;;;5053871;28;20208;-45
2022/04/15 06:11:02;;;;;;;23.73;12.83;;;8.30;99.90;;;;;;5057448;28;20565;-45
2022/04/15 06:13:29;;;;;;;20.43;11.87;;;8.30;99.90;;;;;;5039908;28;20577;-46
2022/04/15 06:15:58;;;;;;;23.50;13.37;;;8.40;99.90;;;;;;5051170;28;20195;-44
2022/04/15 06:18:29;;;;;;;23.90;12.63;;;8.40;99.90;;;;;;5046576;28;20203;-47
2022/04/15 06:20:56;;;;;;;21.87;13.17;;;8.40;99.90;;;;;;5052272;28;20299;-46
2022/04/15 06:23:23;;;;;;;26.47;13.03;;;8.40;99.90;;;;;;5055344;28;20198;-49
2022/04/15 06:25:49;;;;;;;21.93;12.13;;;8.40;99.90;;;;;;5049343;28;20281;-47
2022/04/15 06:28:16;;;;;;;22.27;12.40;;;8.40;99.90;;;;;;5045196;28;20565;-47
2022/04/15 06:30:43;;;;;;;22.57;12.53;;;8.40;99.90;;;;;;5047469;28;20223;-48
2022/04/15 06:33:11;;;;;;;24.63;12.73;;;8.50;99.90;;;;;;5043940;28;20266;-47
2022/04/15 06:35:39;;;;;;;20.60;12.40;;;8.50;99.90;;;;;;5047179;28;20253;-45
2022/04/15 06:38:06;;;;;;;23.47;11.73;;;8.50;99.90;;;;;;5053373;28;20202;-44
2022/04/15 06:40:34;;;;;;;19.20;12.43;;;8.50;99.90;;;;;;5050213;28;20213;-46
2022/04/15 06:43:00;;;;;;;22.13;12.80;;;8.50;99.90;;;;;;5052104;28;20700;-45
2022/04/15 06:45:28;;;;;;;24.50;13.30;;;8.50;99.90;;;;;;5043070;28;20209;-45
2022/04/15 06:47:54;;;;;;;24.57;13.63;;;8.50;99.90;;;;;;5053701;28;20541;-45
2022/04/15 06:50:22;;;;;;;24.63;14.90;;;8.50;99.90;;;;;;5051239;28;20226;-50
2022/04/15 06:52:49;;;;;;;23.13;14.43;;;8.50;99.90;;;;;;5050472;28;20218;-47
2022/04/15 06:55:17;;;;;;;25.30;13.83;;;8.50;99.90;;;;;;5055021;28;21772;-46
2022/04/15 06:57:44;;;;;;;29.10;14.27;;;8.50;99.90;;;;;;5051925;28;20285;-46
2022/04/15 07:00:13;;;;;;;22.60;14.03;;;8.40;99.90;;;;;;5048886;28;20950;-46
2022/04/15 07:02:41;;;;;;;24.50;14.77;;;8.50;99.90;;;;;;5047875;28;20223;-47
2022/04/15 07:05:10;;;;;;;25.43;14.10;;;8.40;99.90;;;;;;5042182;28;20411;-47
2022/04/15 07:07:38;;;;;;;24.97;14.57;;;8.50;99.90;;;;;;5057689;28;20218;-48
2022/04/15 07:10:08;;;;;;;24.97;12.43;;;8.50;99.90;;;;;;5047017;28;22451;-45
2022/04/15 07:12:35;;;;;;;22.67;14.00;;;8.50;99.90;;;;;;5059149;28;20215;-44
2022/04/15 07:15:03;;;;;;;22.67;13.17;;;8.60;99.90;;;;;;5045095;28;20187;-49
2022/04/15 07:17:30;;;;;;;22.53;14.03;;;8.50;99.90;;;;;;5048334;28;20205;-45
2022/04/15 07:19:56;;;;;;;21.47;13.10;;;8.60;99.90;;;;;;5044263;28;20199;-48
2022/04/15 07:22:23;;;;;;;20.13;13.27;;;8.60;99.90;;;;;;5056964;28;20210;-48
2022/04/15 07:24:51;;;;;;;24.20;13.87;;;8.60;99.90;;;;;;5054244;28;20217;-45
2022/04/15 07:27:18;;;;;;;19.10;13.33;;;8.50;99.90;;;;;;5067276;28;20206;-46
2022/04/15 07:29:45;;;;;;;23.43;14.10;;;8.50;99.90;;;;;;5052520;28;20194;-45
2022/04/15 07:32:13;;;;;;;19.67;13.73;;;8.50;99.90;;;;;;5053369;28;20221;-49
2022/04/15 07:34:40;;;;;;;19.90;13.10;;;8.50;99.90;;;;;;5048363;28;20205;-44
2022/04/15 07:37:07;;;;;;;21.27;12.30;;;8.50;99.90;;;;;;5056779;28;20222;-44
2022/04/15 07:39:33;;;;;;;21.07;14.03;;;8.60;99.90;;;;;;5052751;28;20210;-47
2022/04/15 07:42:02;;;;;;;24.50;13.10;;;8.50;99.90;;;;;;5060584;28;20279;-46
2022/04/15 07:44:30;;;;;;;21.70;13.17;;;8.50;99.90;;;;;;5054268;28;20963;-50
2022/04/15 07:46:57;;;;;;;20.67;13.30;;;8.50;99.90;;;;;;5058275;28;20294;-46
2022/04/15 07:49:24;;;;;;;24.77;14.07;;;8.60;99.90;;;;;;5049825;28;20276;-48
2022/04/15 07:51:50;;;;;;;22.07;14.90;;;8.60;99.90;;;;;;5047390;28;20223;-50
2022/04/15 07:54:17;;;;;;;23.23;14.80;;;8.60;99.90;;;;;;5058667;28;20225;-48
2022/04/15 07:56:44;;;;;;;28.07;15.20;;;8.60;99.90;;;;;;5047671;28;20664;-48
2022/04/15 07:59:12;;;;;;;23.00;12.97;;;8.60;99.90;;;;;;5061459;28;20203;-46
2022/04/15 08:01:39;;;;;;;24.10;13.93;;;8.60;99.90;;;;;;5058670;28;20230;-45
2022/04/15 08:04:06;;;;;;;18.73;13.40;;;8.60;99.90;;;;;;5044640;28;20213;-45
2022/04/15 08:06:33;;;;;;;20.83;13.07;;;8.70;99.90;;;;;;5047233;28;20234;-50
2022/04/15 08:09:00;;;;;;;21.80;12.80;;;8.70;99.90;;;;;;5057109;28;20661;-48
2022/04/15 08:11:28;;;;;;;21.03;12.70;;;8.70;99.90;;;;;;5045852;28;20227;-47
2022/04/15 08:13:55;;;;;;;22.47;13.30;;;8.70;99.90;;;;;;5059315;28;20222;-45
2022/04/15 08:16:25;;;;;;;17.23;13.23;;;8.70;99.90;;;;;;5057381;28;20199;-49
2022/04/15 08:18:51;;;;;;;20.53;13.83;;;8.80;99.90;;;;;;5042976;28;20221;-49
2022/04/15 08:21:19;;;;;;;18.10;12.77;;;8.80;99.90;;;;;;5059234;28;20223;-47
2022/04/15 08:23:47;;;;;;;18.47;13.37;;;8.80;99.90;;;;;;5051384;28;20888;-45
2022/04/15 08:26:14;;;;;;;19.90;13.33;;;8.90;99.90;;;;;;5058576;28;20264;-46
2022/04/15 08:28:40;;;;;;;16.93;12.30;;;8.90;99.90;;;;;;5047253;28;20207;-48
2022/04/15 08:31:08;;;;;;;24.00;13.80;;;8.90;99.90;;;;;;5057166;28;20234;-45
2022/04/15 08:33:37;;;;;;;17.03;11.87;;;8.90;99.90;;;;;;5042959;28;20231;-48
2022/04/15 08:36:04;;;;;;;17.43;13.13;;;9.00;99.90;;;;;;5054334;28;20199;-45
2022/04/15 08:38:31;;;;;;;22.17;12.70;;;9.00;99.90;;;;;;5053037;28;20215;-48
2022/04/15 08:40:59;;;;;;;20.47;12.77;;;9.10;99.90;;;;;;5058580;28;20211;-45
2022/04/15 08:43:29;;;;;;;20.17;13.70;;;9.10;99.90;;;;;;5048944;28;20202;-44
2022/04/15 08:45:57;;;;;;;19.40;12.07;;;9.20;99.90;;;;;;5047076;28;20187;-47
2022/04/15 08:48:25;;;;;;;18.40;13.63;;;9.20;99.90;;;;;;5038801;28;20253;-47
2022/04/15 08:50:54;;;;;;;18.90;12.83;;;9.20;99.90;;;;;;5055194;28;20223;-45
2022/04/15 08:53:22;;;;;;;20.10;13.03;;;9.20;99.90;;;;;;5044612;28;20214;-44
2022/04/15 08:55:49;;;;;;;23.10;14.03;;;9.20;99.90;;;;;;5050167;28;20183;-46
2022/04/15 08:58:16;;;;;;;19.20;13.40;;;9.20;99.90;;;;;;5045567;28;20218;-47
2022/04/15 09:00:46;;;;;;;22.53;14.47;;;9.20;99.90;;;;;;5052204;28;20284;-47
2022/04/15 09:03:12;;;;;;;20.07;13.53;;;9.20;99.90;;;;;;5048859;28;20199;-47
2022/04/15 09:05:39;;;;;;;20.33;13.87;;;9.20;99.90;;;;;;5055184;28;20350;-46
2022/04/15 09:08:10;;;;;;;18.10;13.07;;;9.30;99.90;;;;;;5064206;28;20203;-45
2022/04/15 09:10:40;;;;;;;20.83;13.63;;;9.30;99.90;;;;;;5045219;28;20238;-46
2022/04/15 09:13:08;;;;;;;19.60;13.30;;;9.30;99.90;;;;;;5050467;28;20398;-46
2022/04/15 09:15:36;;;;;;;20.57;13.20;;;9.30;99.90;;;;;;5042332;28;20273;-48
2022/04/15 09:18:03;;;;;;;18.90;13.50;;;9.30;99.90;;;;;;5045237;28;20195;-48
2022/04/15 09:20:33;;;;;;;20.57;13.53;;;9.30;99.90;;;;;;5044555;28;20206;-49
2022/04/15 09:23:10;;;;;;;21.37;13.70;;;9.30;99.90;;;;;;5047512;28;20209;-46
2022/04/15 09:25:39;;;;;;;23.30;13.53;;;9.30;99.90;;;;;;5043059;28;20242;-48
2022/04/15 09:28:06;;;;;;;19.70;13.60;;;9.30;99.90;;;;;;5047723;28;20572;-46
2022/04/15 09:30:36;;;;;;;23.83;14.10;;;9.30;99.90;;;;;;5055496;28;20202;-47
2022/04/15 09:33:04;;;;;;;23.00;14.53;;;9.30;99.90;;;;;;5063038;28;20759;-48
2022/04/15 09:35:31;;;;;;;20.47;13.93;;;9.30;99.90;;;;;;5047761;28;20589;-50
2022/04/15 09:38:03;;;;;;;20.20;13.37;;;9.30;99.90;;;;;;5062761;28;20225;-46
2022/04/15 09:40:35;;;;;;;20.30;13.80;;;9.30;99.90;;;;;;5052436;28;20213;-51
2022/04/15 09:43:04;;;;;;;19.80;13.37;;;9.30;99.90;;;;;;5052151;28;20195;-45
2022/04/15 09:45:34;;;;;;;21.93;13.83;;;9.30;99.90;;;;;;5048954;28;20214;-47
2022/04/15 09:48:02;;;;;;;22.63;14.40;;;9.40;99.90;;;;;;5048327;28;20277;-46
2022/04/15 09:50:31;;;;;;;19.60;14.23;;;9.40;99.90;;;;;;5038021;28;20203;-51
2022/04/15 09:53:09;;;;;;;24.17;14.07;;;9.50;99.90;;;;;;5054561;28;20218;-45
2022/04/15 09:55:39;;;;;;;22.37;14.50;;;9.40;99.90;;;;;;5036144;28;20234;-52
2022/04/15 09:58:09;;;;;;;23.40;14.60;;;9.60;99.90;;;;;;5050335;28;20234;-49
2022/04/15 10:00:37;;;;;;;20.53;14.67;;;9.60;99.90;;;;;;5038530;28;20199;-52
2022/04/15 10:03:07;;;;;;;21.03;14.70;;;9.60;99.90;;;;;;5065384;28;20213;-46
2022/04/15 10:05:36;;;;;;;20.70;13.73;;;9.60;99.90;;;;;;5038611;28;20195;-46
2022/04/15 10:08:03;;;;;;;22.00;14.43;;;9.70;99.90;;;;;;5048285;28;20195;-46
2022/04/15 10:10:31;;;;;;;20.10;13.83;;;9.70;99.90;;;;;;5041448;28;20565;-48
2022/04/15 10:13:01;;;;;;;21.60;14.50;;;9.70;99.90;;;;;;5046772;28;20222;-44
2022/04/15 10:15:30;;;;;;;19.77;13.30;;;9.70;99.90;;;;;;5050961;28;20300;-48
2022/04/15 10:17:57;;;;;;;20.47;12.57;;;9.80;99.90;;;;;;5060053;28;20214;-45
2022/04/15 10:20:26;;;;;;;20.23;12.50;;;9.80;99.90;;;;;;5041385;28;20285;-47
2022/04/15 10:22:54;;;;;;;18.33;12.87;;;9.80;99.90;;;;;;5059914;28;20191;-45
2022/04/15 10:25:21;;;;;;;21.30;13.60;;;9.80;99.90;;;;;;5041629;28;20207;-47
2022/04/15 10:27:49;;;;;;;21.57;12.90;;;9.80;99.90;;;;;;5043681;28;20206;-49
2022/04/15 10:30:19;;;;;;;18.40;11.67;;;9.80;99.90;;;;;;5048891;28;20199;-49
2022/04/15 10:32:51;;;;;;;21.57;12.77;;;9.80;99.90;;;;;;5049563;28;20199;-48
2022/04/15 10:35:23;;;;;;;20.10;13.23;;;9.80;99.90;;;;;;5046336;28;20203;-46
2022/04/15 10:38:00;;;;;;;20.50;12.10;;;9.80;99.90;;;;;;5046727;28;20924;-47
2022/04/15 10:40:30;;;;;;;18.70;12.07;;;9.80;99.90;;;;;;5043170;28;20268;-49
2022/04/15 10:43:21;;;;;;;21.23;11.63;;;9.80;99.90;;;;;;5045185;28;20211;-48
2022/04/15 10:45:51;;;;;;;22.77;12.87;;;9.80;99.90;;;;;;5049268;28;20221;-48
2022/04/15 10:48:29;;;;;;;18.67;12.00;;;9.80;99.90;;;;;;5053446;28;20564;-46
2022/04/15 10:50:57;;;;;;;18.93;12.27;;;9.70;99.90;;;;;;5051762;28;20214;-49
2022/04/15 10:53:33;;;;;;;17.13;11.93;;;9.70;99.90;;;;;;5045151;28;20710;-49
2022/04/15 10:56:08;;;;;;;15.13;11.20;;;9.70;99.90;;;;;;5056548;28;20251;-48
2022/04/15 11:01:52;;;;;;;18.63;10.83;;;9.70;99.90;;;;;;5054259;28;20263;-42
2022/04/15 11:04:23;;;;;;;19.73;11.10;;;9.70;99.90;;;;;;5049186;28;20199;-49
2022/04/15 11:06:51;;;;;;;15.97;10.17;;;9.70;99.90;;;;;;5039766;28;20766;-43
2022/04/15 11:09:22;;;;;;;12.87;9.40;;;9.70;99.90;;;;;;5053709;28;20230;-47
2022/04/15 11:11:51;;;;;;;15.70;10.07;;;9.70;99.90;;;;;;5052284;28;20279;-46
2022/04/15 11:14:18;;;;;;;12.37;9.77;;;9.70;99.90;;;;;;5043133;28;20211;-49
2022/04/15 11:16:48;;;;;;;16.60;9.33;;;9.80;99.90;;;;;;5045839;28;20278;-45
2022/04/15 11:19:24;;;;;;;13.00;8.60;;;9.80;99.90;;;;;;5046011;28;20199;-49
2022/04/15 11:21:53;;;;;;;13.37;9.57;;;9.80;99.90;;;;;;5055531;28;20711;-48
2022/04/15 11:24:23;;;;;;;13.93;9.30;;;9.80;99.90;;;;;;5046651;28;20285;-48
2022/04/15 11:26:50;;;;;;;12.43;9.63;;;9.80;99.90;;;;;;5054427;28;20281;-46
2022/04/15 11:29:17;;;;;;;13.97;10.20;;;9.80;99.90;;;;;;5046923;28;20683;-51
2022/04/15 11:31:46;;;;;;;14.00;9.43;;;9.80;99.90;;;;;;5057331;28;20214;-45
2022/04/15 11:34:15;;;;;;;12.63;9.07;;;9.80;99.90;;;;;;5050957;28;20301;-47
2022/04/15 11:36:45;;;;;;;14.83;9.77;;;9.80;99.90;;;;;;5045992;28;20233;-47
2022/04/15 11:39:14;;;;;;;18.20;10.53;;;9.90;99.90;;;;;;5039719;28;20201;-46
2022/04/15 11:41:46;;;;;;;16.17;10.10;;;9.90;99.90;;;;;;5050785;28;20219;-48
2022/04/15 11:44:13;;;;;;;16.17;10.30;;;9.90;99.90;;;;;;5045986;28;22055;-50
2022/04/15 11:46:42;;;;;;;15.30;10.20;;;9.90;99.90;;;;;;5046632;28;20202;-49
2022/04/15 11:49:20;;;;;;;15.67;10.13;;;10.00;99.90;;;;;;5044629;28;20210;-50
2022/04/15 11:51:49;;;;;;;16.27;10.40;;;10.00;99.90;;;;;;5049738;28;20226;-44
2022/04/15 11:54:17;;;;;;;15.73;9.77;;;10.00;99.90;;;;;;5044304;28;20207;-45
2022/04/15 11:56:45;;;;;;;12.93;8.77;;;10.00;99.90;;;;;;5046680;28;20285;-47
2022/04/15 11:59:12;;;;;;;11.43;7.23;;;10.00;99.90;;;;;;5047697;28;20533;-45
2022/04/15 12:01:39;;;;;;;10.97;7.87;;;10.00;99.90;;;;;;5036381;28;20583;-46
2022/04/15 12:04:06;;;;;;;11.83;8.60;;;10.00;99.90;;;;;;5046515;28;20183;-47
2022/04/15 12:06:40;;;;;;;8.17;6.03;;;10.00;99.90;;;;;;5054622;28;20218;-51
2022/04/15 12:09:10;;;;;;;9.17;6.07;;;10.00;99.90;;;;;;5037511;28;20199;-51
2022/04/15 12:11:37;;;;;;;6.33;5.33;;;10.00;99.90;;;;;;5053895;28;20235;-51
2022/04/15 12:14:06;;;;;;;6.77;5.33;;;10.00;99.90;;;;;;5055628;28;20202;-46
2022/04/15 12:16:35;;;;;;;6.80;5.93;;;10.00;99.90;;;;;;5047665;28;20285;-48
2022/04/15 12:19:03;;;;;;;8.17;6.37;;;10.10;99.90;;;;;;5052809;28;20888;-46
2022/04/15 12:21:30;;;;;;;5.80;5.27;;;10.10;99.90;;;;;;5051824;28;20225;-46
2022/04/15 12:24:09;;;;;;;6.13;5.20;;;10.10;99.90;;;;;;5043364;28;20956;-49
2022/04/15 12:26:47;;;;;;;8.30;6.40;;;10.20;99.90;;;;;;5062708;28;20553;-47
2022/04/15 12:32:16;;;;;;;8.07;6.50;;;10.10;99.90;;;;;;5044453;28;20219;-51
2022/04/15 12:34:43;;;;;;;9.87;6.73;;;10.10;99.90;;;;;;5058659;28;20218;-52
2022/04/15 12:37:31;;;;;;;6.77;6.07;;;10.10;99.90;;;;;;5056897;28;20281;-48
2022/04/15 12:39:59;;;;;;;10.10;6.53;;;10.00;99.90;;;;;;5041169;28;20311;-49
2022/04/15 12:42:30;;;;;;;8.13;6.70;;;10.00;99.90;;;;;;5060587;28;20219;-46
2022/04/15 12:44:58;;;;;;;7.63;5.97;;;9.90;99.90;;;;;;5046768;28;20649;-44
2022/04/15 12:47:26;;;;;;;8.30;6.37;;;9.90;99.90;;;;;;5053172;28;20194;-46
2022/04/15 12:49:53;;;;;;;9.90;5.83;;;9.90;99.90;;;;;;5054532;28;20214;-47
2022/04/15 12:52:20;;;;;;;8.30;5.90;;;9.90;99.90;;;;;;5053575;28;20237;-52
2022/04/15 12:54:59;;;;;;;8.20;6.40;;;10.00;99.90;;;;;;5046997;28;20294;-49